Time;durP1;ratioP1;P1;durP2;ratioP2;P2;SDS_P1;SDS_P2;PMS_P1;PMS_P2;Temp;Humidity;BMP_temperature;BMP_pressure;BME280_temperature;BME280_humidity;BME280_pressure;Samples;Min_cycle;Max_cycle;Signal;HPM_P1;HPM_P2
2022/05/02 00:00:34;;;;;;;;;12.33;12.33;;;;;22.30;37.05;101328.69;110255;1264;18390;-50
2022/05/02 00:03:04;;;;;;;;;11.33;10.00;;;;;22.30;37.26;101335.80;110305;1264;20684;-50
2022/05/02 00:05:31;;;;;;;;;9.50;9.00;;;;;22.30;37.02;101332.14;110306;1263;18833;-52
2022/05/02 00:07:58;;;;;;;;;13.00;12.00;;;;;22.30;37.16;101331.31;110298;1265;18714;-50
2022/05/02 00:10:25;;;;;;;;;10.00;10.00;;;;;22.29;37.31;101329.88;110296;1264;22674;-50
2022/05/02 00:12:53;;;;;;;;;10.00;10.00;;;;;22.29;37.23;101327.52;110340;1264;18904;-49
2022/05/02 00:15:20;;;;;;;;;12.00;10.00;;;;;22.29;37.04;101325.05;110231;1265;22077;-49
2022/05/02 00:18:00;;;;;;;;;10.00;10.00;;;;;22.28;37.21;101331.89;110275;1264;18260;-50
2022/05/02 00:20:27;;;;;;;;;12.50;12.00;;;;;22.28;37.13;101328.91;110329;1262;22331;-49
2022/05/02 00:22:54;;;;;;;;;12.00;10.00;;;;;22.29;37.11;101328.46;110477;1262;18756;-51
2022/05/02 00:25:22;;;;;;;;;10.00;9.00;;;;;22.29;37.20;101325.91;110446;1262;19210;-47
2022/05/02 00:27:49;;;;;;;;;10.00;10.00;;;;;22.29;37.08;101330.11;110499;1262;19013;-50
2022/05/02 00:30:16;;;;;;;;;12.50;10.00;;;;;22.29;37.03;101331.14;110306;1264;18702;-48
2022/05/02 00:32:44;;;;;;;;;12.00;9.67;;;;;22.29;37.14;101336.98;110297;1264;18264;-49
2022/05/02 00:35:11;;;;;;;;;12.00;12.00;;;;;22.29;37.15;101335.38;110276;1263;19151;-51
2022/05/02 00:37:38;;;;;;;;;12.00;10.67;;;;;22.29;37.24;101336.56;110302;1264;19353;-52
2022/05/02 00:40:06;;;;;;;;;13.00;13.00;;;;;22.30;37.08;101338.20;110534;1262;20864;-52
2022/05/02 00:42:33;;;;;;;;;11.33;10.00;;;;;22.30;37.03;101334.18;110289;1261;19525;-50
2022/05/02 00:45:00;;;;;;;;;11.00;9.00;;;;;22.29;37.03;101330.41;110453;1261;18650;-51
2022/05/02 00:47:27;;;;;;;;;9.00;9.00;;;;;22.30;37.11;101335.14;110164;1263;18749;-50
2022/05/02 00:49:55;;;;;;;;;9.00;9.00;;;;;22.30;37.11;101331.86;110303;1264;19664;-50
2022/05/02 00:52:22;;;;;;;;;12.67;12.00;;;;;22.29;37.06;101328.41;110291;1265;18554;-50
2022/05/02 00:54:50;;;;;;;;;9.00;8.00;;;;;22.29;37.10;101327.70;110449;1261;19560;-51
2022/05/02 00:57:17;;;;;;;;;9.00;9.00;;;;;22.30;37.02;101331.79;110445;1262;19466;-50
2022/05/02 00:59:44;;;;;;;;;10.00;9.67;;;;;22.30;36.98;101327.29;110324;1265;18492;-52
2022/05/02 01:02:12;;;;;;;;;12.00;10.00;;;;;22.29;37.06;101329.71;110324;1264;19009;-49
2022/05/02 01:04:39;;;;;;;;;9.33;9.00;;;;;22.29;37.04;101322.77;110291;1264;19574;-50
2022/05/02 01:07:12;;;;;;;;;9.67;9.67;;;;;22.29;37.12;101323.35;110438;1262;20970;-51
2022/05/02 01:09:41;;;;;;;;;9.50;9.50;;;;;22.29;37.06;101320.27;110440;1262;18761;-51
2022/05/02 01:12:08;;;;;;;;;9.33;9.33;;;;;22.29;37.02;101325.52;110304;1265;19509;-52
2022/05/02 01:14:36;;;;;;;;;12.00;12.00;;;;;22.29;37.08;101323.77;110247;1264;18651;-52
2022/05/02 01:17:03;;;;;;;;;10.00;10.00;;;;;22.29;37.05;101321.16;110302;1263;18918;-52
2022/05/02 01:19:30;;;;;;;;;9.00;8.00;;;;;22.29;37.11;101317.01;110283;1264;19981;-49
2022/05/02 01:21:57;;;;;;;;;12.50;12.00;;;;;22.29;37.16;101313.90;110497;1262;18696;-51
2022/05/02 01:24:25;;;;;;;;;9.00;9.00;;;;;22.28;37.06;101313.59;110275;1265;18856;-52
2022/05/02 01:26:52;;;;;;;;;10.00;10.00;;;;;22.28;37.18;101312.33;110274;1264;19457;-51
2022/05/02 01:29:19;;;;;;;;;10.00;9.67;;;;;22.28;37.25;101309.48;110214;1264;21215;-50
2022/05/02 01:31:46;;;;;;;;;8.67;8.00;;;;;22.28;37.09;101309.42;110255;1264;21679;-53
2022/05/02 01:34:14;;;;;;;;;10.00;10.00;;;;;22.29;37.13;101307.28;110420;1261;19352;-49
2022/05/02 01:36:43;;;;;;;;;8.00;8.00;;;;;22.29;37.27;101306.98;110261;1264;18559;-52
2022/05/02 01:39:10;;;;;;;;;13.00;11.33;;;;;22.30;37.20;101313.09;110314;1263;18866;-50
2022/05/02 01:41:37;;;;;;;;;9.00;9.00;;;;;22.29;37.20;101314.73;110135;1264;22985;-51
2022/05/02 01:44:04;;;;;;;;;9.00;8.67;;;;;22.29;37.19;101312.02;110417;1262;18891;-51
2022/05/02 01:46:32;;;;;;;;;10.00;9.33;;;;;22.29;37.12;101312.26;110424;1262;18697;-51
2022/05/02 01:48:59;;;;;;;;;12.00;10.00;;;;;22.29;37.02;101311.88;110407;1262;22722;-52
2022/05/02 01:51:26;;;;;;;;;13.00;12.00;;;;;22.29;37.11;101310.04;110291;1262;21722;-51
2022/05/02 01:53:53;;;;;;;;;10.00;9.00;;;;;22.29;37.18;101313.66;110299;1264;18924;-51
2022/05/02 01:56:21;;;;;;;;;10.00;9.00;;;;;22.29;37.20;101309.16;110265;1264;20140;-48
2022/05/02 01:58:48;;;;;;;;;12.00;10.00;;;;;22.29;37.07;101308.77;110288;1264;20425;-50
2022/05/02 02:01:15;;;;;;;;;8.00;8.00;;;;;22.29;37.21;101310.98;110405;1262;18852;-51
2022/05/02 02:03:42;;;;;;;;;8.67;8.67;;;;;22.29;37.25;101314.82;110345;1262;19545;-51
2022/05/02 02:06:10;;;;;;;;;12.00;10.00;;;;;22.28;37.06;101315.43;110283;1264;18762;-51
2022/05/02 02:08:37;;;;;;;;;10.00;9.67;;;;;22.28;37.18;101317.23;110282;1264;18930;-49
2022/05/02 02:11:04;;;;;;;;;12.00;9.67;;;;;22.28;37.11;101317.23;110279;1264;19627;-51
2022/05/02 02:13:31;;;;;;;;;9.00;9.00;;;;;22.28;37.14;101316.15;110293;1264;18728;-52
2022/05/02 02:15:59;;;;;;;;;10.00;10.00;;;;;22.28;37.11;101312.91;110325;1265;20131;-50
2022/05/02 02:18:26;;;;;;;;;9.33;9.33;;;;;22.28;37.19;101315.67;110242;1265;19490;-50
2022/05/02 02:20:53;;;;;;;;;10.00;9.00;;;;;22.27;37.21;101313.52;110468;1261;18756;-48
2022/05/02 02:23:20;;;;;;;;;10.67;10.00;;;;;22.27;37.17;101310.28;110306;1262;22316;-50
2022/05/02 02:25:48;;;;;;;;;13.00;12.00;;;;;22.27;37.14;101302.42;110341;1262;19596;-50
2022/05/02 02:28:15;;;;;;;;;10.67;10.00;;;;;22.27;37.13;101293.39;110475;1261;18831;-48
2022/05/02 02:30:42;;;;;;;;;10.00;10.00;;;;;22.28;37.17;101288.02;110287;1262;18784;-51
2022/05/02 02:33:09;;;;;;;;;9.00;9.00;;;;;22.27;37.21;101286.59;110336;1262;20891;-51
2022/05/02 02:35:37;;;;;;;;;12.00;9.00;;;;;22.26;37.15;101289.43;110278;1262;18706;-51
2022/05/02 02:38:04;;;;;;;;;9.50;9.00;;;;;22.26;37.32;101289.43;110322;1262;19089;-52
2022/05/02 02:40:31;;;;;;;;;9.67;8.33;;;;;22.27;37.27;101296.88;110309;1262;19680;-50
2022/05/02 02:42:58;;;;;;;;;9.33;9.00;;;;;22.26;37.38;101303.46;110364;1262;18503;-50
2022/05/02 02:45:26;;;;;;;;;9.67;8.00;;;;;22.27;37.20;101305.79;110280;1262;18699;-51
2022/05/02 02:47:53;;;;;;;;;9.00;9.00;;;;;22.27;37.22;101306.70;110323;1262;19450;-51
2022/05/02 02:50:20;;;;;;;;;9.00;8.00;;;;;22.28;37.24;101306.59;110291;1264;18584;-51
2022/05/02 02:52:48;;;;;;;;;13.33;10.00;;;;;22.27;37.33;101306.67;110290;1265;18805;-52
2022/05/02 02:55:15;;;;;;;;;9.33;9.00;;;;;22.27;37.44;101303.77;110319;1264;20052;-48
2022/05/02 02:57:42;;;;;;;;;9.67;9.00;;;;;22.27;37.38;101307.05;110436;1261;19107;-51
2022/05/02 03:00:09;;;;;;;;;9.67;9.00;;;;;22.27;37.19;101303.42;110300;1262;18738;-50
2022/05/02 03:02:37;;;;;;;;;8.50;8.50;;;;;22.26;37.33;101302.41;110308;1262;20951;-50
2022/05/02 03:07:49;;;;;;;;;9.67;8.67;;;;;22.27;37.41;101300.90;110306;1262;18816;-51
2022/05/02 03:10:16;;;;;;;;;10.00;9.00;;;;;22.26;37.37;101298.58;110301;1262;22293;-52
2022/05/02 03:12:43;;;;;;;;;10.33;10.33;;;;;22.26;37.29;101296.19;110437;1262;18798;-52
2022/05/02 03:15:11;;;;;;;;;8.33;8.33;;;;;22.26;37.33;101288.58;110450;1262;18778;-50
2022/05/02 03:17:38;;;;;;;;;10.00;10.00;;;;;22.26;37.29;101292.00;110440;1262;20107;-51
2022/05/02 03:20:05;;;;;;;;;17.33;9.00;;;;;22.24;37.40;101289.89;110268;1262;19344;-50
2022/05/02 03:22:32;;;;;;;;;10.00;10.00;;;;;22.25;37.46;101290.29;110328;1263;19215;-51
2022/05/02 03:25:00;;;;;;;;;8.00;8.00;;;;;22.26;37.49;101296.40;110344;1262;19807;-52
2022/05/02 03:27:27;;;;;;;;;10.00;9.00;;;;;22.25;37.48;101295.77;110333;1262;22332;-50
2022/05/02 03:29:54;;;;;;;;;8.50;8.00;;;;;22.25;37.39;101290.13;110340;1262;18777;-52
2022/05/02 03:32:21;;;;;;;;;10.00;10.00;;;;;22.25;37.50;101285.24;110291;1265;19620;-50
2022/05/02 03:34:49;;;;;;;;;9.00;9.00;;;;;22.25;37.37;101280.70;110286;1264;22807;-51
2022/05/02 03:37:16;;;;;;;;;8.00;8.00;;;;;22.25;37.51;101269.27;110243;1265;18773;-51
2022/05/02 03:39:43;;;;;;;;;10.00;9.33;;;;;22.25;37.40;101273.60;110274;1264;22956;-48
2022/05/02 03:42:11;;;;;;;;;11.67;11.33;;;;;22.24;37.35;101278.60;110295;1264;18454;-51
2022/05/02 03:44:38;;;;;;;;;9.00;9.00;;;;;22.25;37.48;101279.98;110275;1264;18744;-49
2022/05/02 03:47:05;;;;;;;;;10.00;9.00;;;;;22.25;37.57;101286.52;110312;1264;19614;-50
2022/05/02 03:49:32;;;;;;;;;9.00;9.00;;;;;22.25;37.60;101301.77;110384;1262;18504;-51
2022/05/02 03:52:00;;;;;;;;;12.33;10.00;;;;;22.25;37.50;101305.96;110374;1262;19093;-52
2022/05/02 03:54:27;;;;;;;;;9.00;9.00;;;;;22.26;37.45;101305.01;110315;1264;19510;-50
2022/05/02 03:56:54;;;;;;;;;12.00;10.00;;;;;22.25;37.57;101307.46;110279;1262;18717;-51
2022/05/02 03:59:22;;;;;;;;;10.00;10.00;;;;;22.24;37.53;101302.25;110288;1261;18748;-51
2022/05/02 04:01:49;;;;;;;;;10.00;9.00;;;;;22.24;37.64;101296.98;110243;1263;19379;-47
2022/05/02 04:04:16;;;;;;;;;13.00;11.33;;;;;22.24;37.43;101289.02;110330;1262;18719;-49
2022/05/02 04:06:43;;;;;;;;;9.00;9.00;;;;;22.24;37.47;101285.34;110307;1262;21269;-50
2022/05/02 04:09:11;;;;;;;;;12.00;9.33;;;;;22.25;37.50;101287.64;110267;1265;19629;-51
2022/05/02 04:11:38;;;;;;;;;10.50;9.50;;;;;22.24;37.77;101290.95;110323;1262;19660;-50
2022/05/02 04:14:06;;;;;;;;;8.33;8.33;;;;;22.24;37.55;101289.14;110281;1265;19331;-50
2022/05/02 04:16:33;;;;;;;;;10.00;10.00;;;;;22.25;37.59;101288.73;110327;1262;19515;-50
2022/05/02 04:19:00;;;;;;;;;9.00;9.00;;;;;22.25;37.69;101291.80;110510;1261;18508;-51
2022/05/02 04:21:27;;;;;;;;;9.00;9.00;;;;;22.25;37.67;101292.38;110435;1262;20258;-51
2022/05/02 04:23:55;;;;;;;;;10.00;10.00;;;;;22.24;37.65;101291.36;110257;1261;19427;-51
2022/05/02 04:26:22;;;;;;;;;9.33;9.33;;;;;22.24;37.66;101293.16;110302;1262;18303;-50
2022/05/02 04:28:49;;;;;;;;;11.00;9.00;;;;;22.25;37.72;101293.09;110313;1262;18551;-49
2022/05/02 04:31:16;;;;;;;;;10.67;10.00;;;;;22.27;37.59;101292.16;110525;1262;19916;-48
2022/05/02 04:33:44;;;;;;;;;13.00;12.00;;;;;22.26;37.78;101287.48;110469;1262;33405;-49
2022/05/02 04:36:11;;;;;;;;;12.00;11.33;;;;;22.25;37.70;101287.23;110333;1262;18975;-50
2022/05/02 04:38:38;;;;;;;;;9.00;8.33;;;;;22.25;37.80;101293.27;110306;1262;19522;-51
2022/05/02 04:41:06;;;;;;;;;12.00;10.00;;;;;22.26;37.67;101295.52;110304;1262;20207;-50
2022/05/02 04:43:33;;;;;;;;;10.00;10.00;;;;;22.25;37.77;101297.19;110308;1262;18812;-51
2022/05/02 04:46:00;;;;;;;;;11.33;9.67;;;;;22.26;37.61;101295.72;110474;1261;19473;-49
2022/05/02 04:48:27;;;;;;;;;10.00;10.00;;;;;22.27;37.54;101300.15;110359;1262;18921;-52
2022/05/02 04:50:55;;;;;;;;;12.33;10.00;;;;;22.27;37.65;101301.41;110327;1261;18789;-51
2022/05/02 04:53:22;;;;;;;;;12.67;12.67;;;;;22.28;37.78;101304.58;110277;1265;19577;-51
2022/05/02 04:55:49;;;;;;;;;9.33;9.33;;;;;22.28;37.78;101307.77;110400;1261;22922;-50
2022/05/02 04:58:17;;;;;;;;;12.00;10.67;;;;;22.28;37.75;101306.35;110423;1262;18851;-51
2022/05/02 05:00:44;;;;;;;;;10.00;9.67;;;;;22.28;37.71;101305.98;110354;1261;19548;-52
2022/05/02 05:03:11;;;;;;;;;9.67;9.00;;;;;22.28;37.63;101309.77;110310;1262;18683;-51
2022/05/02 05:05:39;;;;;;;;;8.67;8.67;;;;;22.29;37.82;101314.62;110274;1262;18766;-53
2022/05/02 05:08:06;;;;;;;;;10.00;9.00;;;;;22.29;37.67;101317.52;110270;1264;19541;-49
2022/05/02 05:10:33;;;;;;;;;13.00;12.00;;;;;22.29;37.82;101316.29;110337;1262;19820;-51
2022/05/02 05:13:00;;;;;;;;;10.00;10.00;;;;;22.29;37.67;101317.04;110408;1262;18816;-50
2022/05/02 05:18:12;;;;;;;;;9.00;8.67;;;;;22.29;37.92;101315.88;110368;1262;22178;-52
2022/05/02 05:20:40;;;;;;;;;13.00;11.00;;;;;22.29;37.87;101319.67;110381;1262;19009;-49
2022/05/02 05:23:07;;;;;;;;;9.00;8.00;;;;;22.29;37.80;101318.23;110224;1263;19561;-51
2022/05/02 05:25:34;;;;;;;;;10.00;9.00;;;;;22.29;38.00;101314.48;110257;1264;18886;-52
2022/05/02 05:28:01;;;;;;;;;10.00;10.00;;;;;22.29;37.94;101311.51;110266;1262;21779;-51
2022/05/02 05:30:28;;;;;;;;;12.00;12.00;;;;;22.29;37.92;101315.56;110214;1264;21085;-49
2022/05/02 05:32:56;;;;;;;;;9.67;9.33;;;;;22.30;38.08;101313.77;110280;1262;18824;-52
2022/05/02 05:35:23;;;;;;;;;11.33;10.00;;;;;22.39;38.54;101312.20;110255;1264;19130;-52
2022/05/02 05:37:50;;;;;;;;;12.67;11.33;;;;;22.47;39.00;101309.69;110272;1262;19502;-52
2022/05/02 05:40:18;;;;;;;;;9.67;9.67;;;;;22.49;39.03;101307.82;110232;1262;18757;-49
2022/05/02 05:42:45;;;;;;;;;11.33;10.67;;;;;22.52;38.96;101308.48;110349;1262;18993;-50
2022/05/02 05:45:13;;;;;;;;;14.00;9.67;;;;;22.51;38.76;101312.49;110341;1262;19804;-51
2022/05/02 05:47:40;;;;;;;;;12.00;12.00;;;;;22.52;39.08;101313.84;110249;1262;18780;-51
2022/05/02 05:50:07;;;;;;;;;10.00;9.00;;;;;22.52;38.89;101311.23;110206;1265;19101;-49
2022/05/02 05:52:35;;;;;;;;;10.67;10.67;;;;;22.54;38.85;101307.94;110246;1264;19517;-52
2022/05/02 05:55:02;;;;;;;;;13.00;10.00;;;;;22.55;38.75;101306.03;110252;1264;19456;-49
2022/05/02 05:57:30;;;;;;;;;13.00;13.00;;;;;22.55;38.70;101304.60;110389;1261;18755;-51
2022/05/02 05:59:57;;;;;;;;;13.00;12.33;;;;;22.51;38.30;101301.12;110266;1262;21499;-54
2022/05/02 06:02:24;;;;;;;;;13.00;13.00;;;;;22.49;37.86;101302.39;110180;1264;18661;-50
2022/05/02 06:04:51;;;;;;;;;14.33;13.00;;;;;22.48;37.94;101297.68;110413;1262;19091;-50
2022/05/02 06:07:19;;;;;;;;;14.00;13.67;;;;;22.50;37.64;101299.83;110270;1262;19537;-50
2022/05/02 06:09:46;;;;;;;;;11.33;11.00;;;;;22.52;37.37;101299.81;110234;1264;22822;-52
2022/05/02 06:12:13;;;;;;;;;12.67;11.67;;;;;22.51;37.20;101298.11;110393;1262;18876;-52
2022/05/02 06:18:27;;;;;;;;;14.00;13.00;;;;;22.52;37.11;101299.02;110262;1262;19533;-53
2022/05/02 06:20:12;;;;;;;;;12.33;12.33;;;;;22.57;36.93;101298.60;110294;1262;21813;-51
2022/05/02 06:22:40;;;;;;;;;12.00;10.67;;;;;22.55;36.72;101289.67;110401;1261;19450;-49
2022/05/02 06:25:07;;;;;;;;;15.00;14.00;;;;;22.48;36.79;101289.27;110424;1262;18721;-48
2022/05/02 06:27:34;;;;;;;;;15.00;13.00;;;;;22.44;36.45;101288.53;110375;1262;22826;-50
2022/05/02 06:30:02;;;;;;;;;13.00;12.00;;;;;22.42;36.58;101292.00;110351;1261;19440;-52
2022/05/02 06:32:29;;;;;;;;;17.00;16.00;;;;;22.39;36.19;101292.91;110339;1262;18734;-50
2022/05/02 06:34:57;;;;;;;;;12.00;12.00;;;;;22.37;36.39;101296.55;110208;1264;20146;-50
2022/05/02 06:37:24;;;;;;;;;13.33;12.00;;;;;22.37;36.65;101296.28;110298;1261;20056;-50
2022/05/02 06:39:51;;;;;;;;;16.00;14.00;;;;;22.33;36.27;101293.75;110303;1262;18732;-52
2022/05/02 06:42:19;;;;;;;;;12.33;12.33;;;;;22.34;36.56;101291.60;110376;1262;22867;-51
2022/05/02 06:44:46;;;;;;;;;12.00;12.00;;;;;22.37;36.34;101291.46;110376;1261;19587;-54
2022/05/02 06:47:13;;;;;;;;;14.00;12.67;;;;;22.38;36.54;101291.69;110252;1264;18841;-51
2022/05/02 06:49:40;;;;;;;;;14.67;13.00;;;;;22.41;36.67;101291.38;110276;1262;22258;-51
2022/05/02 06:52:08;;;;;;;;;13.00;12.00;;;;;22.43;36.36;101297.26;110280;1262;19791;-51
2022/05/02 06:54:35;;;;;;;;;13.00;12.50;;;;;22.40;36.13;101294.96;110272;1264;18874;-49
2022/05/02 06:57:02;;;;;;;;;13.50;13.00;;;;;22.42;35.51;101296.77;110276;1264;21816;-50
2022/05/02 06:59:29;;;;;;;;;13.00;12.00;;;;;22.43;35.87;101297.94;110393;1262;19530;-53
2022/05/02 07:01:57;;;;;;;;;13.00;12.00;;;;;22.44;36.05;101295.73;110242;1262;18822;-49
2022/05/02 07:04:24;;;;;;;;;14.00;13.00;;;;;22.37;35.81;101295.50;110452;1261;18875;-48
2022/05/02 07:06:51;;;;;;;;;13.00;12.00;;;;;22.25;35.97;101294.70;110417;1261;19471;-50
2022/05/02 07:09:18;;;;;;;;;13.00;12.00;;;;;22.15;36.57;101297.47;110306;1262;18719;-50
2022/05/02 07:11:45;;;;;;;;;13.67;12.33;;;;;22.12;36.67;101298.30;110253;1262;19383;-49
2022/05/02 07:14:13;;;;;;;;;12.33;11.33;;;;;22.11;36.36;101296.21;110194;1262;21427;-50
2022/05/02 07:16:40;;;;;;;;;10.00;10.00;;;;;22.13;36.10;101294.91;110030;1262;18943;-50
2022/05/02 07:19:07;;;;;;;;;13.67;13.33;;;;;22.07;35.87;101296.48;110287;1262;18817;-50
2022/05/02 07:21:34;;;;;;;;;13.33;11.33;;;;;22.02;35.59;101297.42;110314;1262;19533;-50
2022/05/02 07:24:02;;;;;;;;;15.33;13.00;;;;;22.02;35.54;101298.44;110331;1262;19494;-51
2022/05/02 07:26:29;;;;;;;;;13.00;12.50;;;;;21.97;34.92;101296.05;110311;1262;19151;-51
2022/05/02 07:28:56;;;;;;;;;10.00;9.33;;;;;21.97;34.69;101296.29;110282;1262;20349;-49
2022/05/02 07:31:24;;;;;;;;;9.33;9.33;;;;;22.04;35.00;101304.27;110282;1262;18693;-49
2022/05/02 07:33:51;;;;;;;;;9.00;9.00;;;;;22.13;34.63;101297.30;110472;1262;18753;-50
2022/05/02 07:36:18;;;;;;;;;12.50;12.00;;;;;22.18;34.49;101297.54;110414;1262;20734;-51
2022/05/02 07:38:46;;;;;;;;;13.33;10.67;;;;;22.20;34.35;101295.66;110092;1262;193027;-51
2022/05/02 07:41:28;;;;;;;;;12.00;9.00;;;;;22.22;34.48;101297.34;110257;1262;22427;-50
2022/05/02 07:43:55;;;;;;;;;11.00;11.00;;;;;22.29;34.70;101296.73;110240;1264;19386;-50
2022/05/02 07:46:22;;;;;;;;;12.33;12.00;;;;;22.32;34.64;101296.58;110312;1264;22351;-51
2022/05/02 07:48:50;;;;;;;;;9.00;9.00;;;;;22.36;34.33;101294.81;110407;1262;18903;-51
2022/05/02 07:51:17;;;;;;;;;12.00;11.00;;;;;22.39;34.40;101296.33;110390;1261;19738;-51
2022/05/02 07:53:44;;;;;;;;;9.00;9.00;;;;;22.36;34.34;101299.04;110284;1262;18409;-52
2022/05/02 07:56:12;;;;;;;;;9.00;9.00;;;;;22.41;34.59;101298.52;110227;1264;22462;-50
2022/05/02 07:58:39;;;;;;;;;12.67;11.33;;;;;22.39;33.95;101294.86;110237;1264;22701;-48
2022/05/02 08:01:06;;;;;;;;;9.00;8.00;;;;;22.28;33.65;101294.14;110373;1262;18425;-49
2022/05/02 08:03:33;;;;;;;;;12.00;12.00;;;;;22.27;33.58;101292.84;110301;1262;21794;-51
2022/05/02 08:06:01;;;;;;;;;10.00;9.00;;;;;22.30;32.99;101288.85;110291;1262;19552;-49
2022/05/02 08:08:28;;;;;;;;;8.67;8.67;;;;;22.27;32.84;101291.16;110244;1264;18811;-52
2022/05/02 08:10:55;;;;;;;;;13.00;12.00;;;;;22.28;32.71;101286.45;110411;1262;18647;-50
2022/05/02 08:13:23;;;;;;;;;10.00;10.00;;;;;22.27;32.56;101281.79;110316;1261;19441;-48
2022/05/02 08:15:50;;;;;;;;;11.67;11.00;;;;;22.23;32.60;101284.14;110358;1262;18862;-50
2022/05/02 08:18:17;;;;;;;;;8.50;8.50;;;;;22.18;32.08;101279.27;110203;1262;19006;-50
2022/05/02 08:20:44;;;;;;;;;11.00;9.00;;;;;22.23;31.96;101285.30;110337;1262;19503;-50
2022/05/02 08:28:43;;;;;;;;;9.00;9.00;;;;;22.13;31.51;101276.98;110225;1264;19575;-50
2022/05/02 08:31:11;;;;;;;;;12.00;9.67;;;;;21.93;31.55;101278.01;110264;1264;18868;-50
2022/05/02 08:33:39;;;;;;;;;8.00;8.00;;;;;21.80;31.87;101279.92;110249;1265;18771;-50
2022/05/02 08:36:08;;;;;;;;;9.00;8.00;;;;;21.84;31.80;101276.31;110258;1265;19579;-52
2022/05/02 08:38:35;;;;;;;;;9.00;9.00;;;;;21.85;31.95;101277.09;110229;1265;18367;-50
2022/05/02 08:41:03;;;;;;;;;8.00;8.00;;;;;21.91;32.15;101272.66;110182;1264;23200;-50
2022/05/02 08:43:30;;;;;;;;;9.00;9.00;;;;;22.05;31.90;101274.08;110221;1264;19528;-51
2022/05/02 08:45:57;;;;;;;;;8.00;8.00;;;;;22.07;31.67;101276.44;110222;1265;18442;-49
2022/05/02 08:48:24;;;;;;;;;12.00;9.00;;;;;22.19;32.13;101274.59;110405;1262;23006;-51
2022/05/02 08:50:52;;;;;;;;;10.00;10.00;;;;;22.29;32.14;101271.61;110127;1265;19483;-50
2022/05/02 08:53:19;;;;;;;;;8.00;8.00;;;;;22.34;31.80;101269.41;110048;1263;18788;-49
2022/05/02 08:55:46;;;;;;;;;8.00;7.33;;;;;22.33;31.69;101267.38;110071;1265;20039;-50
2022/05/02 08:58:13;;;;;;;;;12.67;12.00;;;;;22.39;32.09;101266.28;110430;1262;19584;-51
2022/05/02 09:00:41;;;;;;;;;8.00;8.00;;;;;22.20;31.98;101256.61;110218;1261;25325;-49
2022/05/02 09:03:08;;;;;;;;;9.00;9.00;;;;;22.14;32.09;101252.02;110034;1264;19350;-50
2022/05/02 09:05:35;;;;;;;;;13.33;10.00;;;;;22.15;31.85;101252.88;110204;1264;19806;-53
2022/05/02 09:08:02;;;;;;;;;10.00;9.00;;;;;22.14;31.93;101246.21;110302;1262;18414;-46
2022/05/02 09:10:29;;;;;;;;;9.00;8.33;;;;;22.17;31.74;101246.48;110105;1263;19242;-51
2022/05/02 09:12:57;;;;;;;;;12.00;10.00;;;;;22.18;31.80;101243.48;110170;1264;19551;-50
2022/05/02 09:15:24;;;;;;;;;10.00;9.00;;;;;22.24;31.71;101243.65;110183;1264;18616;-51
2022/05/02 09:17:51;;;;;;;;;12.33;12.00;;;;;22.21;31.67;101238.77;110263;1262;18879;-48
2022/05/02 09:20:18;;;;;;;;;12.00;10.67;;;;;22.15;31.80;101234.50;110005;1264;20952;-48
2022/05/02 09:22:46;;;;;;;;;10.00;10.00;;;;;22.19;31.92;101234.63;110145;1265;18936;-50
2022/05/02 09:25:13;;;;;;;;;9.50;9.00;;;;;22.20;31.68;101231.94;110267;1264;23016;-53
2022/05/02 09:27:40;;;;;;;;;10.00;10.00;;;;;22.22;31.80;101228.11;110391;1262;20876;-53
2022/05/02 09:30:11;;;;;;;;;12.00;11.33;;;;;22.11;31.48;101225.59;110169;1264;18623;-49
2022/05/02 09:32:47;;;;;;;;;12.00;12.00;;;;;22.04;31.58;101219.73;110271;1262;19235;-49
2022/05/02 09:35:14;;;;;;;;;10.00;10.00;;;;;22.08;31.42;101220.92;110762;1262;19498;-52
2022/05/02 09:37:41;;;;;;;;;12.00;12.00;;;;;22.10;31.21;101215.73;110255;1264;20788;-51
2022/05/02 09:40:09;;;;;;;;;12.67;10.00;;;;;21.97;31.19;101213.16;110361;1261;18857;-50
2022/05/02 09:42:36;;;;;;;;;8.67;8.67;;;;;21.94;31.16;101209.20;110346;1262;19801;-51
2022/05/02 09:50:33;;;;;;;;;9.00;9.00;;;;;22.05;31.00;101208.08;110277;1265;19476;-51
2022/05/02 09:53:00;;;;;;;;;10.00;10.00;;;;;22.06;31.01;101209.10;110302;1262;18590;-50
2022/05/02 09:58:13;;;;;;;;;12.00;10.00;;;;;21.97;31.12;101207.35;110406;1262;19449;-49
2022/05/02 10:03:25;;;;;;;;;8.67;8.67;;;;;22.06;31.15;101200.52;110322;1262;18729;-51
2022/05/02 10:05:52;;;;;;;;;8.00;8.00;;;;;22.09;31.08;101200.30;110297;1262;19625;-51
2022/05/02 10:08:20;;;;;;;;;10.00;9.00;;;;;21.97;30.88;101191.00;110282;1262;18488;-50
2022/05/02 10:10:48;;;;;;;;;10.00;8.00;;;;;21.76;30.93;101187.60;110273;1262;18939;-49
2022/05/02 10:13:15;;;;;;;;;9.00;9.00;;;;;21.76;30.95;101181.77;110341;1262;19651;-49
2022/05/02 10:15:42;;;;;;;;;12.00;10.00;;;;;21.73;30.75;101176.98;110366;1262;24104;-50
2022/05/02 10:18:09;;;;;;;;;8.67;8.67;;;;;21.67;30.97;101175.47;110354;1262;18832;-51
2022/05/02 10:20:36;;;;;;;;;10.00;10.00;;;;;21.80;30.92;101171.83;110277;1262;19711;-50
2022/05/02 10:23:04;;;;;;;;;10.00;9.00;;;;;21.97;30.78;101170.63;110305;1262;18499;-50
2022/05/02 10:25:32;;;;;;;;;9.00;8.00;;;;;22.07;30.56;101163.23;110421;1262;18742;-51
2022/05/02 10:27:59;;;;;;;;;12.00;9.67;;;;;22.07;30.61;101164.70;110333;1262;19634;-49
2022/05/02 10:30:30;;;;;;;;;6.67;6.67;;;;;22.12;30.75;101161.78;110337;1262;18504;-51
2022/05/02 10:32:57;;;;;;;;;10.00;9.50;;;;;22.15;30.45;101159.45;110381;1262;18842;-50
2022/05/02 10:35:25;;;;;;;;;8.67;8.00;;;;;22.06;30.44;101157.00;110385;1261;19604;-51
2022/05/02 10:37:52;;;;;;;;;10.00;9.33;;;;;22.00;30.52;101150.59;110251;1264;18997;-51
2022/05/02 10:40:19;;;;;;;;;10.00;9.00;;;;;22.05;30.41;101149.16;110402;1262;20152;-51
2022/05/02 10:42:46;;;;;;;;;9.67;9.00;;;;;22.06;30.52;101147.04;110353;1262;19580;-51
2022/05/02 10:45:14;;;;;;;;;8.33;8.00;;;;;22.08;30.55;101146.38;110089;1262;18696;-50
2022/05/02 10:47:41;;;;;;;;;8.67;8.67;;;;;22.00;30.65;101140.97;110196;1264;23072;-50
2022/05/02 10:50:09;;;;;;;;;10.00;9.00;;;;;21.94;30.67;101135.43;110411;1262;19458;-50
2022/05/02 10:52:36;;;;;;;;;12.00;9.00;;;;;22.02;30.57;101133.30;110466;1262;18412;-54
2022/05/02 10:55:05;;;;;;;;;11.00;9.00;;;;;22.09;30.76;101137.89;110265;1262;18848;-50
2022/05/02 10:57:32;;;;;;;;;8.67;8.00;;;;;22.15;30.95;101133.67;110258;1262;19545;-49
2022/05/02 10:59:59;;;;;;;;;10.00;9.00;;;;;22.16;31.14;101133.01;110237;1262;18737;-49
2022/05/02 11:02:26;;;;;;;;;9.33;9.00;;;;;22.17;31.05;101129.58;110380;1261;18762;-49
2022/05/02 11:04:54;;;;;;;;;11.33;10.00;;;;;22.17;31.03;101126.52;110252;1262;21769;-47
2022/05/02 11:07:21;;;;;;;;;10.00;9.67;;;;;22.16;31.25;101126.24;110418;1261;18541;-51
2022/05/02 11:09:48;;;;;;;;;10.33;8.67;;;;;22.07;31.48;101125.44;110365;1262;18870;-51
2022/05/02 11:12:15;;;;;;;;;10.00;9.00;;;;;21.96;31.55;101116.91;110149;1261;20868;-51
2022/05/02 11:14:43;;;;;;;;;9.00;8.00;;;;;21.93;31.71;101115.55;110181;1264;18702;-49
2022/05/02 11:17:10;;;;;;;;;12.00;10.00;;;;;21.99;31.53;101112.94;110312;1262;18787;-54
2022/05/02 11:22:22;;;;;;;;;8.33;8.00;;;;;22.10;31.82;101106.47;110376;1261;22048;-51
2022/05/02 11:24:50;;;;;;;;;8.67;7.33;;;;;22.16;31.69;101098.02;110243;1264;18735;-51
2022/05/02 11:27:18;;;;;;;;;9.67;8.67;;;;;22.18;31.63;101093.67;110234;1263;19477;-50
2022/05/02 11:29:45;;;;;;;;;12.00;12.00;;;;;22.13;31.53;101091.83;110186;1265;18489;-53
2022/05/02 11:32:12;;;;;;;;;11.33;9.67;;;;;22.09;31.57;101089.71;110356;1262;18771;-50
2022/05/02 11:34:39;;;;;;;;;9.00;9.00;;;;;22.08;31.52;101083.95;110474;1262;19695;-51
2022/05/02 11:37:07;;;;;;;;;10.00;9.00;;;;;22.15;31.56;101082.30;110423;1262;18842;-50